sensor_id;sensor_type;location;lat;lon;timestamp;P1;durP1;ratioP1;P2;durP2;ratioP2
62071;SDS011;48031;48.542;13.232;2022-09-29T00:02:08;2.60;;;1.98;;
62071;SDS011;48031;48.542;13.232;2022-09-29T00:04:35;1.35;;;1.25;;
62071;SDS011;48031;48.542;13.232;2022-09-29T00:07:03;2.38;;;1.20;;
62071;SDS011;48031;48.542;13.232;2022-09-29T00:09:30;2.80;;;1.38;;
62071;SDS011;48031;48.542;13.232;2022-09-29T00:11:58;2.10;;;1.30;;
62071;SDS011;48031;48.542;13.232;2022-09-29T00:14:25;1.13;;;1.08;;
62071;SDS011;48031;48.542;13.232;2022-09-29T00:16:52;1.33;;;1.00;;
62071;SDS011;48031;48.542;13.232;2022-09-29T00:19:20;0.90;;;0.90;;
62071;SDS011;48031;48.542;13.232;2022-09-29T00:21:47;1.10;;;1.00;;
62071;SDS011;48031;48.542;13.232;2022-09-29T00:24:14;1.45;;;1.20;;
62071;SDS011;48031;48.542;13.232;2022-09-29T00:26:42;1.13;;;1.02;;
62071;SDS011;48031;48.542;13.232;2022-09-29T00:29:12;1.45;;;1.00;;
62071;SDS011;48031;48.542;13.232;2022-09-29T00:31:39;1.23;;;1.10;;
62071;SDS011;48031;48.542;13.232;2022-09-29T00:34:07;2.22;;;1.10;;
62071;SDS011;48031;48.542;13.232;2022-09-29T00:36:34;1.90;;;1.00;;
62071;SDS011;48031;48.542;13.232;2022-09-29T00:39:02;4.30;;;1.10;;
62071;SDS011;48031;48.542;13.232;2022-09-29T00:41:31;1.92;;;1.00;;
62071;SDS011;48031;48.542;13.232;2022-09-29T00:49:12;0.80;;;0.80;;
62071;SDS011;48031;48.542;13.232;2022-09-29T00:51:41;1.25;;;0.93;;
62071;SDS011;48031;48.542;13.232;2022-09-29T00:54:09;0.90;;;0.90;;
62071;SDS011;48031;48.542;13.232;2022-09-29T00:56:37;1.25;;;1.15;;
62071;SDS011;48031;48.542;13.232;2022-09-29T00:59:08;0.90;;;0.90;;
62071;SDS011;48031;48.542;13.232;2022-09-29T01:01:36;1.67;;;1.10;;
62071;SDS011;48031;48.542;13.232;2022-09-29T01:04:06;2.47;;;0.90;;
62071;SDS011;48031;48.542;13.232;2022-09-29T01:06:38;0.90;;;0.90;;
62071;SDS011;48031;48.542;13.232;2022-09-29T01:09:10;1.25;;;0.80;;
62071;SDS011;48031;48.542;13.232;2022-09-29T01:11:39;1.90;;;0.80;;
62071;SDS011;48031;48.542;13.232;2022-09-29T01:14:08;1.10;;;0.90;;
62071;SDS011;48031;48.542;13.232;2022-09-29T01:16:36;0.80;;;0.80;;
62071;SDS011;48031;48.542;13.232;2022-09-29T01:19:29;1.13;;;0.80;;
62071;SDS011;48031;48.542;13.232;2022-09-29T01:24:53;1.38;;;1.00;;
62071;SDS011;48031;48.542;13.232;2022-09-29T01:29:53;1.80;;;0.90;;
62071;SDS011;48031;48.542;13.232;2022-09-29T01:37:43;1.08;;;0.98;;
62071;SDS011;48031;48.542;13.232;2022-09-29T01:40:15;1.00;;;1.00;;
62071;SDS011;48031;48.542;13.232;2022-09-29T01:43:05;1.38;;;1.10;;
62071;SDS011;48031;48.542;13.232;2022-09-29T01:45:32;2.15;;;1.20;;
62071;SDS011;48031;48.542;13.232;2022-09-29T01:48:01;1.23;;;1.13;;
62071;SDS011;48031;48.542;13.232;2022-09-29T01:50:33;2.60;;;1.33;;
62071;SDS011;48031;48.542;13.232;2022-09-29T01:53:06;1.20;;;1.10;;
62071;SDS011;48031;48.542;13.232;2022-09-29T01:55:36;1.60;;;1.30;;
62071;SDS011;48031;48.542;13.232;2022-09-29T01:58:04;1.45;;;1.35;;
62071;SDS011;48031;48.542;13.232;2022-09-29T02:00:38;2.13;;;1.20;;
62071;SDS011;48031;48.542;13.232;2022-09-29T02:03:07;1.30;;;1.20;;
62071;SDS011;48031;48.542;13.232;2022-09-29T02:05:43;1.85;;;1.20;;
62071;SDS011;48031;48.542;13.232;2022-09-29T02:08:15;1.17;;;1.10;;
62071;SDS011;48031;48.542;13.232;2022-09-29T02:13:15;1.15;;;1.00;;
62071;SDS011;48031;48.542;13.232;2022-09-29T02:15:45;1.25;;;1.15;;
62071;SDS011;48031;48.542;13.232;2022-09-29T02:18:20;1.20;;;1.10;;
62071;SDS011;48031;48.542;13.232;2022-09-29T02:20:48;2.77;;;1.17;;
62071;SDS011;48031;48.542;13.232;2022-09-29T02:23:16;1.20;;;1.10;;
62071;SDS011;48031;48.542;13.232;2022-09-29T02:25:43;1.20;;;1.10;;
62071;SDS011;48031;48.542;13.232;2022-09-29T02:28:12;1.40;;;1.30;;
62071;SDS011;48031;48.542;13.232;2022-09-29T02:30:40;1.30;;;1.20;;
62071;SDS011;48031;48.542;13.232;2022-09-29T02:33:17;1.27;;;1.17;;
62071;SDS011;48031;48.542;13.232;2022-09-29T02:35:48;1.40;;;1.30;;
62071;SDS011;48031;48.542;13.232;2022-09-29T02:38:20;1.40;;;1.30;;
62071;SDS011;48031;48.542;13.232;2022-09-29T02:48:30;1.27;;;1.17;;
62071;SDS011;48031;48.542;13.232;2022-09-29T02:53:51;2.17;;;1.40;;
62071;SDS011;48031;48.542;13.232;2022-09-29T02:59:03;2.13;;;1.55;;
62071;SDS011;48031;48.542;13.232;2022-09-29T03:01:33;1.35;;;1.25;;
62071;SDS011;48031;48.542;13.232;2022-09-29T03:04:00;1.63;;;1.38;;
62071;SDS011;48031;48.542;13.232;2022-09-29T03:06:30;1.50;;;1.40;;
62071;SDS011;48031;48.542;13.232;2022-09-29T03:08:57;1.77;;;1.30;;
62071;SDS011;48031;48.542;13.232;2022-09-29T03:11:24;1.95;;;1.70;;
62071;SDS011;48031;48.542;13.232;2022-09-29T03:13:52;2.13;;;1.85;;
62071;SDS011;48031;48.542;13.232;2022-09-29T03:16:19;1.80;;;1.40;;
62071;SDS011;48031;48.542;13.232;2022-09-29T03:18:47;1.70;;;1.60;;
62071;SDS011;48031;48.542;13.232;2022-09-29T03:21:14;1.65;;;1.55;;
62071;SDS011;48031;48.542;13.232;2022-09-29T03:23:41;1.90;;;1.40;;
62071;SDS011;48031;48.542;13.232;2022-09-29T03:26:08;1.95;;;1.20;;
62071;SDS011;48031;48.542;13.232;2022-09-29T03:28:36;1.63;;;1.30;;
62071;SDS011;48031;48.542;13.232;2022-09-29T03:31:04;1.35;;;1.25;;
62071;SDS011;48031;48.542;13.232;2022-09-29T03:33:33;1.52;;;1.42;;
62071;SDS011;48031;48.542;13.232;2022-09-29T03:36:00;1.30;;;1.20;;
62071;SDS011;48031;48.542;13.232;2022-09-29T03:38:27;1.52;;;1.25;;
62071;SDS011;48031;48.542;13.232;2022-09-29T03:40:54;1.25;;;1.15;;
62071;SDS011;48031;48.542;13.232;2022-09-29T03:43:22;1.40;;;1.00;;
62071;SDS011;48031;48.542;13.232;2022-09-29T03:45:49;1.30;;;1.20;;
62071;SDS011;48031;48.542;13.232;2022-09-29T03:48:18;1.42;;;1.10;;
62071;SDS011;48031;48.542;13.232;2022-09-29T03:50:50;1.85;;;1.42;;
62071;SDS011;48031;48.542;13.232;2022-09-29T03:53:19;1.77;;;1.20;;
62071;SDS011;48031;48.542;13.232;2022-09-29T03:55:47;1.42;;;1.30;;
62071;SDS011;48031;48.542;13.232;2022-09-29T03:58:16;1.30;;;1.20;;
62071;SDS011;48031;48.542;13.232;2022-09-29T04:00:46;2.75;;;1.45;;
62071;SDS011;48031;48.542;13.232;2022-09-29T04:03:14;1.45;;;1.30;;
62071;SDS011;48031;48.542;13.232;2022-09-29T04:05:43;2.17;;;1.20;;
62071;SDS011;48031;48.542;13.232;2022-09-29T04:08:12;2.33;;;1.40;;
62071;SDS011;48031;48.542;13.232;2022-09-29T04:10:39;2.75;;;1.30;;
62071;SDS011;48031;48.542;13.232;2022-09-29T04:13:07;1.58;;;1.20;;
62071;SDS011;48031;48.542;13.232;2022-09-29T04:15:35;3.55;;;1.30;;
62071;SDS011;48031;48.542;13.232;2022-09-29T04:18:02;3.55;;;1.20;;
62071;SDS011;48031;48.542;13.232;2022-09-29T04:20:29;1.58;;;1.42;;
62071;SDS011;48031;48.542;13.232;2022-09-29T04:22:56;2.08;;;1.88;;
62071;SDS011;48031;48.542;13.232;2022-09-29T04:25:24;1.88;;;1.50;;
62071;SDS011;48031;48.542;13.232;2022-09-29T04:27:52;2.13;;;1.60;;
62071;SDS011;48031;48.542;13.232;2022-09-29T04:30:20;2.20;;;1.63;;
62071;SDS011;48031;48.542;13.232;2022-09-29T04:32:47;1.85;;;1.40;;
62071;SDS011;48031;48.542;13.232;2022-09-29T04:35:14;10.90;;;2.13;;
62071;SDS011;48031;48.542;13.232;2022-09-29T04:37:41;1.25;;;1.10;;
62071;SDS011;48031;48.542;13.232;2022-09-29T04:40:08;2.03;;;1.40;;
62071;SDS011;48031;48.542;13.232;2022-09-29T04:42:35;2.53;;;1.50;;
62071;SDS011;48031;48.542;13.232;2022-09-29T04:45:02;3.72;;;1.73;;
62071;SDS011;48031;48.542;13.232;2022-09-29T04:47:29;2.17;;;1.50;;
62071;SDS011;48031;48.542;13.232;2022-09-29T04:49:56;2.28;;;1.60;;
62071;SDS011;48031;48.542;13.232;2022-09-29T04:52:23;1.40;;;1.30;;
62071;SDS011;48031;48.542;13.232;2022-09-29T04:54:50;3.35;;;1.40;;
62071;SDS011;48031;48.542;13.232;2022-09-29T04:57:18;1.83;;;1.60;;
62071;SDS011;48031;48.542;13.232;2022-09-29T04:59:45;4.57;;;2.00;;
62071;SDS011;48031;48.542;13.232;2022-09-29T05:02:12;3.38;;;2.00;;
62071;SDS011;48031;48.542;13.232;2022-09-29T05:04:39;2.83;;;1.58;;
62071;SDS011;48031;48.542;13.232;2022-09-29T05:07:06;3.50;;;1.77;;
62071;SDS011;48031;48.542;13.232;2022-09-29T05:09:33;3.70;;;1.73;;
62071;SDS011;48031;48.542;13.232;2022-09-29T05:12:00;2.50;;;1.70;;
62071;SDS011;48031;48.542;13.232;2022-09-29T05:14:27;5.40;;;2.03;;
62071;SDS011;48031;48.542;13.232;2022-09-29T05:16:54;2.47;;;1.95;;
62071;SDS011;48031;48.542;13.232;2022-09-29T05:19:22;10.25;;;2.00;;
62071;SDS011;48031;48.542;13.232;2022-09-29T05:21:49;7.47;;;2.38;;
62071;SDS011;48031;48.542;13.232;2022-09-29T05:24:16;27.10;;;5.82;;
62071;SDS011;48031;48.542;13.232;2022-09-29T05:26:43;5.00;;;3.08;;
62071;SDS011;48031;48.542;13.232;2022-09-29T05:29:10;3.67;;;2.75;;
62071;SDS011;48031;48.542;13.232;2022-09-29T05:31:37;3.53;;;2.20;;
62071;SDS011;48031;48.542;13.232;2022-09-29T05:34:04;3.53;;;2.38;;
62071;SDS011;48031;48.542;13.232;2022-09-29T05:36:31;3.65;;;2.65;;
62071;SDS011;48031;48.542;13.232;2022-09-29T05:38:58;4.28;;;2.55;;
62071;SDS011;48031;48.542;13.232;2022-09-29T05:41:25;4.07;;;2.55;;
62071;SDS011;48031;48.542;13.232;2022-09-29T05:43:52;3.08;;;2.20;;
62071;SDS011;48031;48.542;13.232;2022-09-29T05:46:21;2.28;;;1.63;;
62071;SDS011;48031;48.542;13.232;2022-09-29T05:48:48;2.65;;;1.88;;
62071;SDS011;48031;48.542;13.232;2022-09-29T05:51:21;2.50;;;2.10;;
62071;SDS011;48031;48.542;13.232;2022-09-29T05:53:49;3.50;;;2.10;;
62071;SDS011;48031;48.542;13.232;2022-09-29T05:56:18;2.75;;;1.65;;
62071;SDS011;48031;48.542;13.232;2022-09-29T05:58:51;3.03;;;2.00;;
62071;SDS011;48031;48.542;13.232;2022-09-29T06:01:19;2.45;;;1.90;;
62071;SDS011;48031;48.542;13.232;2022-09-29T06:03:48;3.10;;;2.10;;
62071;SDS011;48031;48.542;13.232;2022-09-29T06:06:23;4.10;;;2.20;;
62071;SDS011;48031;48.542;13.232;2022-09-29T06:08:52;4.95;;;1.98;;
62071;SDS011;48031;48.542;13.232;2022-09-29T06:11:25;3.03;;;2.10;;
62071;SDS011;48031;48.542;13.232;2022-09-29T06:13:54;4.50;;;1.95;;
62071;SDS011;48031;48.542;13.232;2022-09-29T06:16:22;3.83;;;2.30;;
62071;SDS011;48031;48.542;13.232;2022-09-29T06:18:51;3.03;;;2.20;;
62071;SDS011;48031;48.542;13.232;2022-09-29T06:21:20;4.22;;;2.65;;
62071;SDS011;48031;48.542;13.232;2022-09-29T06:23:49;4.03;;;2.55;;
62071;SDS011;48031;48.542;13.232;2022-09-29T06:26:17;3.75;;;2.80;;
62071;SDS011;48031;48.542;13.232;2022-09-29T06:28:50;3.20;;;2.25;;
62071;SDS011;48031;48.542;13.232;2022-09-29T06:31:19;2.83;;;1.85;;
62071;SDS011;48031;48.542;13.232;2022-09-29T06:33:48;3.30;;;2.40;;
62071;SDS011;48031;48.542;13.232;2022-09-29T06:39:07;4.80;;;2.70;;
62071;SDS011;48031;48.542;13.232;2022-09-29T06:41:36;4.32;;;2.40;;
62071;SDS011;48031;48.542;13.232;2022-09-29T06:44:06;3.10;;;2.00;;
62071;SDS011;48031;48.542;13.232;2022-09-29T06:46:34;4.43;;;2.50;;
62071;SDS011;48031;48.542;13.232;2022-09-29T06:49:01;4.70;;;2.40;;
62071;SDS011;48031;48.542;13.232;2022-09-29T06:51:28;3.03;;;2.10;;
62071;SDS011;48031;48.542;13.232;2022-09-29T06:54:10;3.08;;;2.20;;
62071;SDS011;48031;48.542;13.232;2022-09-29T06:56:38;4.15;;;2.30;;
62071;SDS011;48031;48.542;13.232;2022-09-29T06:59:06;4.72;;;2.50;;
62071;SDS011;48031;48.542;13.232;2022-09-29T07:01:33;5.25;;;2.53;;
62071;SDS011;48031;48.542;13.232;2022-09-29T07:04:00;5.50;;;2.60;;
62071;SDS011;48031;48.542;13.232;2022-09-29T07:06:28;3.88;;;2.35;;
62071;SDS011;48031;48.542;13.232;2022-09-29T07:08:56;3.28;;;2.15;;
62071;SDS011;48031;48.542;13.232;2022-09-29T07:11:24;2.55;;;1.83;;
62071;SDS011;48031;48.542;13.232;2022-09-29T07:13:52;4.45;;;1.83;;
62071;SDS011;48031;48.542;13.232;2022-09-29T07:16:20;2.05;;;1.60;;
62071;SDS011;48031;48.542;13.232;2022-09-29T07:18:50;1.45;;;1.17;;
62071;SDS011;48031;48.542;13.232;2022-09-29T07:21:18;1.48;;;1.30;;
62071;SDS011;48031;48.542;13.232;2022-09-29T07:23:47;1.30;;;1.20;;
62071;SDS011;48031;48.542;13.232;2022-09-29T07:26:15;1.17;;;1.10;;
62071;SDS011;48031;48.542;13.232;2022-09-29T07:28:43;1.38;;;1.27;;
62071;SDS011;48031;48.542;13.232;2022-09-29T07:31:12;1.70;;;1.60;;
62071;SDS011;48031;48.542;13.232;2022-09-29T07:33:45;1.83;;;1.25;;
62071;SDS011;48031;48.542;13.232;2022-09-29T07:36:14;1.30;;;1.20;;
62071;SDS011;48031;48.542;13.232;2022-09-29T07:38:46;1.45;;;1.35;;
62071;SDS011;48031;48.542;13.232;2022-09-29T07:41:15;1.50;;;1.30;;
62071;SDS011;48031;48.542;13.232;2022-09-29T07:43:44;1.67;;;1.20;;
62071;SDS011;48031;48.542;13.232;2022-09-29T07:46:11;1.45;;;1.20;;
62071;SDS011;48031;48.542;13.232;2022-09-29T07:48:39;2.58;;;1.25;;
62071;SDS011;48031;48.542;13.232;2022-09-29T07:51:07;2.00;;;1.40;;
62071;SDS011;48031;48.542;13.232;2022-09-29T07:53:37;1.95;;;1.70;;
62071;SDS011;48031;48.542;13.232;2022-09-29T07:56:05;1.85;;;1.20;;
62071;SDS011;48031;48.542;13.232;2022-09-29T07:58:33;3.75;;;1.50;;
62071;SDS011;48031;48.542;13.232;2022-09-29T08:01:01;2.20;;;1.73;;
62071;SDS011;48031;48.542;13.232;2022-09-29T08:03:31;2.40;;;1.50;;
62071;SDS011;48031;48.542;13.232;2022-09-29T08:05:58;2.83;;;1.80;;
62071;SDS011;48031;48.542;13.232;2022-09-29T08:08:25;1.70;;;1.50;;
62071;SDS011;48031;48.542;13.232;2022-09-29T08:11:00;1.40;;;1.30;;
62071;SDS011;48031;48.542;13.232;2022-09-29T08:13:50;1.70;;;1.50;;
62071;SDS011;48031;48.542;13.232;2022-09-29T08:16:18;2.20;;;2.00;;
62071;SDS011;48031;48.542;13.232;2022-09-29T08:18:46;2.30;;;1.80;;
62071;SDS011;48031;48.542;13.232;2022-09-29T08:21:13;2.38;;;1.70;;
62071;SDS011;48031;48.542;13.232;2022-09-29T08:23:41;1.65;;;1.55;;
62071;SDS011;48031;48.542;13.232;2022-09-29T08:26:10;2.08;;;1.52;;
62071;SDS011;48031;48.542;13.232;2022-09-29T08:28:40;1.90;;;1.60;;
62071;SDS011;48031;48.542;13.232;2022-09-29T08:31:11;2.40;;;1.80;;
62071;SDS011;48031;48.542;13.232;2022-09-29T08:33:40;2.17;;;1.63;;
62071;SDS011;48031;48.542;13.232;2022-09-29T08:36:07;1.70;;;1.60;;
62071;SDS011;48031;48.542;13.232;2022-09-29T08:38:44;1.63;;;1.50;;
62071;SDS011;48031;48.542;13.232;2022-09-29T08:44:03;1.67;;;1.42;;
62071;SDS011;48031;48.542;13.232;2022-09-29T08:47:06;2.80;;;1.50;;
62071;SDS011;48031;48.542;13.232;2022-09-29T08:49:46;1.88;;;1.45;;
62071;SDS011;48031;48.542;13.232;2022-09-29T08:52:21;2.15;;;1.40;;
62071;SDS011;48031;48.542;13.232;2022-09-29T08:54:54;38.92;;;9.80;;
62071;SDS011;48031;48.542;13.232;2022-09-29T08:57:22;6.38;;;3.20;;
62071;SDS011;48031;48.542;13.232;2022-09-29T08:59:52;4.28;;;2.00;;
62071;SDS011;48031;48.542;13.232;2022-09-29T09:08:05;2.38;;;1.45;;
62071;SDS011;48031;48.542;13.232;2022-09-29T09:10:47;3.45;;;1.23;;
62071;SDS011;48031;48.542;13.232;2022-09-29T09:13:18;1.98;;;1.30;;
62071;SDS011;48031;48.542;13.232;2022-09-29T09:16:01;1.25;;;1.10;;
62071;SDS011;48031;48.542;13.232;2022-09-29T09:18:55;1.90;;;1.48;;
62071;SDS011;48031;48.542;13.232;2022-09-29T09:24:04;1.60;;;1.50;;
62071;SDS011;48031;48.542;13.232;2022-09-29T09:26:37;2.28;;;1.02;;
62071;SDS011;48031;48.542;13.232;2022-09-29T09:29:17;1.27;;;1.17;;
62071;SDS011;48031;48.542;13.232;2022-09-29T09:32:03;2.53;;;1.30;;
62071;SDS011;48031;48.542;13.232;2022-09-29T09:39:41;2.22;;;1.98;;
62071;SDS011;48031;48.542;13.232;2022-09-29T09:42:16;1.30;;;1.20;;
62071;SDS011;48031;48.542;13.232;2022-09-29T09:44:46;1.33;;;1.27;;
62071;SDS011;48031;48.542;13.232;2022-09-29T09:47:20;1.50;;;1.40;;
62071;SDS011;48031;48.542;13.232;2022-09-29T09:49:50;1.20;;;1.20;;
62071;SDS011;48031;48.542;13.232;2022-09-29T09:52:21;2.63;;;1.33;;
62071;SDS011;48031;48.542;13.232;2022-09-29T09:54:51;1.35;;;1.20;;
62071;SDS011;48031;48.542;13.232;2022-09-29T10:02:23;1.73;;;1.20;;
62071;SDS011;48031;48.542;13.232;2022-09-29T10:04:51;1.35;;;1.30;;
62071;SDS011;48031;48.542;13.232;2022-09-29T10:07:19;1.30;;;1.20;;
62071;SDS011;48031;48.542;13.232;2022-09-29T10:09:47;1.33;;;1.23;;
62071;SDS011;48031;48.542;13.232;2022-09-29T10:12:18;1.10;;;1.10;;
62071;SDS011;48031;48.542;13.232;2022-09-29T10:14:52;1.00;;;1.00;;
62071;SDS011;48031;48.542;13.232;2022-09-29T10:17:21;1.67;;;1.33;;
62071;SDS011;48031;48.542;13.232;2022-09-29T10:19:59;0.90;;;0.90;;
62071;SDS011;48031;48.542;13.232;2022-09-29T10:22:29;1.70;;;0.90;;
62071;SDS011;48031;48.542;13.232;2022-09-29T10:25:07;1.10;;;1.00;;
62071;SDS011;48031;48.542;13.232;2022-09-29T10:27:34;1.48;;;0.90;;
62071;SDS011;48031;48.542;13.232;2022-09-29T10:30:15;1.35;;;0.90;;
62071;SDS011;48031;48.542;13.232;2022-09-29T10:32:43;1.40;;;0.90;;
62071;SDS011;48031;48.542;13.232;2022-09-29T10:35:18;1.10;;;1.00;;
62071;SDS011;48031;48.542;13.232;2022-09-29T10:38:30;0.95;;;0.70;;
62071;SDS011;48031;48.542;13.232;2022-09-29T10:40:42;0.93;;;0.80;;
62071;SDS011;48031;48.542;13.232;2022-09-29T10:43:26;1.25;;;1.00;;
62071;SDS011;48031;48.542;13.232;2022-09-29T10:45:57;0.80;;;0.80;;
62071;SDS011;48031;48.542;13.232;2022-09-29T10:48:25;0.80;;;0.80;;
62071;SDS011;48031;48.542;13.232;2022-09-29T10:50:54;1.33;;;0.60;;
62071;SDS011;48031;48.542;13.232;2022-09-29T10:55:49;0.98;;;0.70;;
62071;SDS011;48031;48.542;13.232;2022-09-29T10:58:25;1.00;;;0.60;;
62071;SDS011;48031;48.542;13.232;2022-09-29T11:01:11;1.65;;;0.70;;
62071;SDS011;48031;48.542;13.232;2022-09-29T11:03:40;0.80;;;0.80;;
62071;SDS011;48031;48.542;13.232;2022-09-29T11:06:13;2.17;;;0.85;;
62071;SDS011;48031;48.542;13.232;2022-09-29T11:14:27;1.00;;;0.90;;
62071;SDS011;48031;48.542;13.232;2022-09-29T11:16:59;1.00;;;0.70;;
62071;SDS011;48031;48.542;13.232;2022-09-29T11:19:30;1.25;;;0.90;;
62071;SDS011;48031;48.542;13.232;2022-09-29T11:24:35;0.73;;;0.73;;
62071;SDS011;48031;48.542;13.232;2022-09-29T11:45:30;1.38;;;0.90;;
62071;SDS011;48031;48.542;13.232;2022-09-29T11:50:52;1.58;;;0.80;;
62071;SDS011;48031;48.542;13.232;2022-09-29T12:06:30;1.27;;;0.80;;
62071;SDS011;48031;48.542;13.232;2022-09-29T12:14:24;1.00;;;1.00;;
62071;SDS011;48031;48.542;13.232;2022-09-29T12:16:59;2.00;;;0.90;;
62071;SDS011;48031;48.542;13.232;2022-09-29T12:19:29;0.95;;;0.80;;
62071;SDS011;48031;48.542;13.232;2022-09-29T12:21:58;2.17;;;0.85;;
62071;SDS011;48031;48.542;13.232;2022-09-29T12:24:37;2.53;;;0.85;;
62071;SDS011;48031;48.542;13.232;2022-09-29T12:27:07;1.05;;;0.80;;
62071;SDS011;48031;48.542;13.232;2022-09-29T12:29:38;0.70;;;0.70;;
62071;SDS011;48031;48.542;13.232;2022-09-29T12:34:48;0.80;;;0.80;;
62071;SDS011;48031;48.542;13.232;2022-09-29T12:39:48;0.80;;;0.80;;
62071;SDS011;48031;48.542;13.232;2022-09-29T12:42:27;1.48;;;1.25;;
62071;SDS011;48031;48.542;13.232;2022-09-29T12:50:10;0.88;;;0.70;;
62071;SDS011;48031;48.542;13.232;2022-09-29T12:52:51;0.98;;;0.80;;
62071;SDS011;48031;48.542;13.232;2022-09-29T12:55:26;1.00;;;0.90;;
62071;SDS011;48031;48.542;13.232;2022-09-29T12:57:55;0.88;;;0.68;;
62071;SDS011;48031;48.542;13.232;2022-09-29T13:00:24;1.40;;;0.80;;
62071;SDS011;48031;48.542;13.232;2022-09-29T13:05:43;1.27;;;1.17;;
62071;SDS011;48031;48.542;13.232;2022-09-29T13:26:51;1.95;;;1.20;;
62071;SDS011;48031;48.542;13.232;2022-09-29T13:29:21;1.20;;;0.90;;
62071;SDS011;48031;48.542;13.232;2022-09-29T13:31:50;1.10;;;1.00;;
62071;SDS011;48031;48.542;13.232;2022-09-29T13:34:28;0.80;;;0.80;;
62071;SDS011;48031;48.542;13.232;2022-09-29T13:37:12;1.25;;;0.90;;
62071;SDS011;48031;48.542;13.232;2022-09-29T13:39:40;1.38;;;0.95;;
62071;SDS011;48031;48.542;13.232;2022-09-29T13:47:48;1.50;;;1.20;;
62071;SDS011;48031;48.542;13.232;2022-09-29T13:55:51;2.28;;;1.30;;
62071;SDS011;48031;48.542;13.232;2022-09-29T14:00:49;1.75;;;1.20;;
62071;SDS011;48031;48.542;13.232;2022-09-29T14:03:36;3.15;;;1.20;;
62071;SDS011;48031;48.542;13.232;2022-09-29T14:09:05;1.13;;;1.02;;
62071;SDS011;48031;48.542;13.232;2022-09-29T14:11:34;3.70;;;1.40;;
62071;SDS011;48031;48.542;13.232;2022-09-29T14:14:07;2.88;;;1.60;;
62071;SDS011;48031;48.542;13.232;2022-09-29T14:17:41;1.55;;;1.10;;
62071;SDS011;48031;48.542;13.232;2022-09-29T14:27:37;3.58;;;1.98;;
62071;SDS011;48031;48.542;13.232;2022-09-29T14:38:07;1.48;;;1.30;;
62071;SDS011;48031;48.542;13.232;2022-09-29T14:40:36;1.67;;;1.50;;
62071;SDS011;48031;48.542;13.232;2022-09-29T14:43:11;2.63;;;1.40;;
62071;SDS011;48031;48.542;13.232;2022-09-29T14:48:38;1.90;;;1.60;;
62071;SDS011;48031;48.542;13.232;2022-09-29T14:51:30;1.48;;;1.35;;
62071;SDS011;48031;48.542;13.232;2022-09-29T15:00:00;1.95;;;1.50;;
62071;SDS011;48031;48.542;13.232;2022-09-29T15:02:29;1.85;;;1.33;;
62071;SDS011;48031;48.542;13.232;2022-09-29T15:04:57;3.47;;;1.70;;
62071;SDS011;48031;48.542;13.232;2022-09-29T15:07:25;2.97;;;1.60;;
62071;SDS011;48031;48.542;13.232;2022-09-29T15:09:54;3.88;;;2.20;;
62071;SDS011;48031;48.542;13.232;2022-09-29T15:12:26;3.28;;;2.00;;
62071;SDS011;48031;48.542;13.232;2022-09-29T15:14:54;1.60;;;1.40;;
62071;SDS011;48031;48.542;13.232;2022-09-29T15:17:29;1.67;;;1.58;;
62071;SDS011;48031;48.542;13.232;2022-09-29T15:27:23;5.28;;;1.75;;
62071;SDS011;48031;48.542;13.232;2022-09-29T15:29:54;3.25;;;2.33;;
62071;SDS011;48031;48.542;13.232;2022-09-29T15:32:24;2.92;;;2.22;;
62071;SDS011;48031;48.542;13.232;2022-09-29T15:34:58;2.65;;;2.20;;
62071;SDS011;48031;48.542;13.232;2022-09-29T15:37:29;3.08;;;2.10;;
62071;SDS011;48031;48.542;13.232;2022-09-29T15:40:12;3.38;;;1.98;;
62071;SDS011;48031;48.542;13.232;2022-09-29T15:42:40;2.58;;;2.15;;
62071;SDS011;48031;48.542;13.232;2022-09-29T15:45:10;3.08;;;2.30;;
62071;SDS011;48031;48.542;13.232;2022-09-29T15:47:42;2.70;;;2.10;;
62071;SDS011;48031;48.542;13.232;2022-09-29T15:50:17;3.33;;;1.98;;
62071;SDS011;48031;48.542;13.232;2022-09-29T15:52:45;3.60;;;2.10;;
62071;SDS011;48031;48.542;13.232;2022-09-29T15:55:17;3.95;;;2.35;;
62071;SDS011;48031;48.542;13.232;2022-09-29T15:57:45;3.97;;;2.42;;
62071;SDS011;48031;48.542;13.232;2022-09-29T16:05:17;2.45;;;1.98;;
62071;SDS011;48031;48.542;13.232;2022-09-29T16:07:46;2.72;;;2.22;;
62071;SDS011;48031;48.542;13.232;2022-09-29T16:10:17;2.60;;;2.10;;
62071;SDS011;48031;48.542;13.232;2022-09-29T16:12:46;2.30;;;1.83;;
62071;SDS011;48031;48.542;13.232;2022-09-29T16:15:25;4.38;;;1.98;;
62071;SDS011;48031;48.542;13.232;2022-09-29T16:17:55;2.38;;;1.92;;
62071;SDS011;48031;48.542;13.232;2022-09-29T16:20:27;2.95;;;2.40;;
62071;SDS011;48031;48.542;13.232;2022-09-29T16:22:56;3.17;;;2.25;;
62071;SDS011;48031;48.542;13.232;2022-09-29T16:25:31;2.60;;;1.90;;
62071;SDS011;48031;48.542;13.232;2022-09-29T16:28:00;4.82;;;2.50;;
62071;SDS011;48031;48.542;13.232;2022-09-29T16:30:34;3.45;;;2.60;;
62071;SDS011;48031;48.542;13.232;2022-09-29T16:33:20;4.30;;;2.92;;
62071;SDS011;48031;48.542;13.232;2022-09-29T16:40:48;6.38;;;3.35;;
62071;SDS011;48031;48.542;13.232;2022-09-29T16:43:24;4.43;;;2.72;;
62071;SDS011;48031;48.542;13.232;2022-09-29T16:45:52;6.32;;;2.92;;
62071;SDS011;48031;48.542;13.232;2022-09-29T16:48:22;3.67;;;2.53;;
62071;SDS011;48031;48.542;13.232;2022-09-29T16:50:57;5.38;;;3.20;;
62071;SDS011;48031;48.542;13.232;2022-09-29T16:53:32;5.65;;;3.00;;
62071;SDS011;48031;48.542;13.232;2022-09-29T16:56:04;5.20;;;2.60;;
62071;SDS011;48031;48.542;13.232;2022-09-29T16:58:32;5.72;;;3.10;;
62071;SDS011;48031;48.542;13.232;2022-09-29T17:01:01;7.30;;;4.38;;
62071;SDS011;48031;48.542;13.232;2022-09-29T17:03:29;5.40;;;3.05;;
62071;SDS011;48031;48.542;13.232;2022-09-29T17:05:56;5.90;;;3.55;;
62071;SDS011;48031;48.542;13.232;2022-09-29T17:08:28;4.32;;;2.80;;
62071;SDS011;48031;48.542;13.232;2022-09-29T17:11:00;6.28;;;3.45;;
62071;SDS011;48031;48.542;13.232;2022-09-29T17:13:29;4.72;;;3.30;;
62071;SDS011;48031;48.542;13.232;2022-09-29T17:15:56;4.65;;;3.30;;
62071;SDS011;48031;48.542;13.232;2022-09-29T17:18:24;5.03;;;3.50;;
62071;SDS011;48031;48.542;13.232;2022-09-29T17:20:54;4.82;;;3.20;;
62071;SDS011;48031;48.542;13.232;2022-09-29T17:23:21;4.57;;;3.05;;
62071;SDS011;48031;48.542;13.232;2022-09-29T17:25:48;8.25;;;4.53;;
62071;SDS011;48031;48.542;13.232;2022-09-29T17:28:20;6.18;;;3.85;;
62071;SDS011;48031;48.542;13.232;2022-09-29T17:30:50;8.55;;;4.43;;
62071;SDS011;48031;48.542;13.232;2022-09-29T17:33:20;6.40;;;3.78;;
62071;SDS011;48031;48.542;13.232;2022-09-29T17:35:48;7.80;;;4.05;;
62071;SDS011;48031;48.542;13.232;2022-09-29T17:38:21;7.35;;;3.92;;
62071;SDS011;48031;48.542;13.232;2022-09-29T17:40:51;6.68;;;3.75;;
62071;SDS011;48031;48.542;13.232;2022-09-29T17:43:31;7.63;;;3.67;;
62071;SDS011;48031;48.542;13.232;2022-09-29T17:45:58;5.75;;;3.20;;
62071;SDS011;48031;48.542;13.232;2022-09-29T17:48:27;4.95;;;3.13;;
62071;SDS011;48031;48.542;13.232;2022-09-29T17:50:55;5.63;;;3.47;;
62071;SDS011;48031;48.542;13.232;2022-09-29T17:53:24;6.47;;;3.72;;
62071;SDS011;48031;48.542;13.232;2022-09-29T17:55:52;4.93;;;3.35;;
62071;SDS011;48031;48.542;13.232;2022-09-29T17:58:21;6.63;;;3.78;;
62071;SDS011;48031;48.542;13.232;2022-09-29T18:00:51;5.68;;;3.40;;
62071;SDS011;48031;48.542;13.232;2022-09-29T18:03:19;6.03;;;3.67;;
62071;SDS011;48031;48.542;13.232;2022-09-29T18:05:48;6.38;;;3.60;;
62071;SDS011;48031;48.542;13.232;2022-09-29T18:08:21;4.55;;;3.35;;
62071;SDS011;48031;48.542;13.232;2022-09-29T18:10:54;6.30;;;3.72;;